Time;durP1;ratioP1;P1;durP2;ratioP2;P2;SDS_P1;SDS_P2;PMS_P1;PMS_P2;Temp;Humidity;BMP_temperature;BMP_pressure;BME280_temperature;BME280_humidity;BME280_pressure;Samples;Min_cycle;Max_cycle;Signal;HPM_P1;HPM_P2
2021/01/20 00:01:46;;;;;;;4.90;2.88;;;6.30;84.50;;;;;;5035714;28;20018;-50
2021/01/20 00:04:12;;;;;;;3.80;2.20;;;6.30;84.60;;;;;;5020544;28;20049;-50
2021/01/20 00:06:37;;;;;;;5.28;2.55;;;6.30;84.60;;;;;;5016533;28;20064;-50
2021/01/20 00:09:04;;;;;;;7.80;3.00;;;6.30;84.60;;;;;;5015763;28;20117;-50
2021/01/20 00:11:30;;;;;;;6.47;3.15;;;6.20;84.50;;;;;;5015615;28;20040;-50
2021/01/20 00:13:56;;;;;;;4.72;3.10;;;6.30;84.60;;;;;;5019060;28;20030;-49
2021/01/20 00:16:22;;;;;;;7.47;2.63;;;6.20;84.60;;;;;;5033012;28;20517;-49
2021/01/20 00:18:48;;;;;;;7.15;3.65;;;6.30;84.60;;;;;;5034813;28;20073;-50
2021/01/20 00:21:13;;;;;;;4.40;2.83;;;6.30;84.60;;;;;;5034948;28;20028;-50
2021/01/20 00:23:39;;;;;;;7.57;2.60;;;6.30;84.60;;;;;;5034729;28;20108;-50
2021/01/20 00:26:04;;;;;;;5.63;2.53;;;6.30;84.50;;;;;;5034682;28;20025;-50
2021/01/20 00:28:30;;;;;;;4.20;2.42;;;6.30;84.50;;;;;;5033617;28;20087;-50
2021/01/20 00:30:56;;;;;;;4.28;2.25;;;6.30;84.60;;;;;;5034975;28;20321;-50
2021/01/20 00:33:25;;;;;;;6.82;2.70;;;6.30;84.50;;;;;;5034587;28;20036;-50
2021/01/20 00:35:50;;;;;;;5.55;2.35;;;6.30;84.60;;;;;;5034087;28;20029;-50
2021/01/20 00:38:16;;;;;;;3.20;2.00;;;6.20;84.50;;;;;;5022472;28;20038;-50
2021/01/20 00:40:42;;;;;;;4.57;2.28;;;6.20;84.60;;;;;;5020649;28;20025;-50
2021/01/20 00:43:07;;;;;;;4.35;2.25;;;6.30;84.60;;;;;;5034504;28;20033;-50
2021/01/20 00:45:33;;;;;;;4.70;2.38;;;6.20;84.50;;;;;;5034605;28;20029;-50
2021/01/20 00:47:59;;;;;;;4.22;1.90;;;6.20;84.60;;;;;;5032788;28;20032;-50
2021/01/20 00:50:24;;;;;;;2.75;1.45;;;6.30;84.60;;;;;;5034270;28;20030;-50
2021/01/20 00:52:50;;;;;;;4.03;2.05;;;6.30;84.60;;;;;;5034723;28;20344;-50
2021/01/20 00:55:16;;;;;;;4.25;2.17;;;6.20;84.60;;;;;;5034439;28;20367;-50
2021/01/20 00:57:43;;;;;;;3.95;1.80;;;6.20;84.60;;;;;;5033923;28;20092;-50
2021/01/20 01:00:10;;;;;;;4.07;2.67;;;6.20;84.60;;;;;;5032608;28;20037;-50
2021/01/20 01:02:36;;;;;;;2.67;1.33;;;6.20;84.60;;;;;;5034058;28;20360;-50
2021/01/20 01:05:03;;;;;;;2.90;1.88;;;6.20;84.60;;;;;;5032537;28;20025;-50
2021/01/20 01:07:29;;;;;;;4.40;1.98;;;6.20;84.60;;;;;;5014352;28;20129;-50
2021/01/20 01:09:55;;;;;;;2.83;1.80;;;6.20;84.60;;;;;;5015601;28;20121;-50
2021/01/20 01:12:20;;;;;;;2.72;1.75;;;6.20;84.70;;;;;;5014440;28;20354;-50
2021/01/20 01:14:46;;;;;;;3.35;2.47;;;6.20;84.60;;;;;;5014318;28;20022;-50
2021/01/20 01:17:12;;;;;;;6.70;2.55;;;6.20;84.60;;;;;;5013889;28;20145;-50
2021/01/20 01:19:37;;;;;;;4.55;1.83;;;6.20;84.70;;;;;;5015022;28;20065;-50
2021/01/20 01:22:03;;;;;;;4.60;1.85;;;6.20;84.60;;;;;;5014230;28;20030;-50
2021/01/20 01:24:28;;;;;;;5.68;2.75;;;6.20;84.50;;;;;;5014143;28;20025;-50
2021/01/20 01:26:54;;;;;;;5.70;2.60;;;6.20;84.60;;;;;;5013926;28;20071;-50
2021/01/20 01:29:20;;;;;;;2.25;1.60;;;6.20;84.50;;;;;;5015040;28;20022;-50
2021/01/20 01:31:45;;;;;;;5.63;2.28;;;6.20;84.60;;;;;;5013944;28;20021;-50
2021/01/20 01:34:11;;;;;;;2.38;1.65;;;6.20;84.60;;;;;;5013821;28;20040;-49
2021/01/20 01:36:37;;;;;;;4.72;2.60;;;6.20;84.50;;;;;;5013912;28;20420;-50
2021/01/20 01:39:04;;;;;;;3.08;2.15;;;6.20;84.60;;;;;;5013825;28;20038;-50
2021/01/20 01:41:29;;;;;;;3.58;2.30;;;6.20;84.50;;;;;;5014808;28;20412;-50
2021/01/20 01:43:55;;;;;;;3.78;2.63;;;6.20;84.60;;;;;;5014919;28;20124;-50
2021/01/20 01:46:21;;;;;;;3.75;2.38;;;6.20;84.50;;;;;;5013632;28;20032;-50
2021/01/20 01:48:46;;;;;;;7.50;2.55;;;6.20;84.50;;;;;;5013615;28;20064;-50
2021/01/20 01:51:12;;;;;;;2.95;2.33;;;6.20;84.50;;;;;;5014690;28;20092;-50
2021/01/20 01:53:38;;;;;;;4.70;2.55;;;6.20;84.60;;;;;;5013707;28;20034;-50
2021/01/20 01:56:04;;;;;;;5.45;2.80;;;6.20;84.50;;;;;;5013650;28;20030;-50
2021/01/20 01:58:30;;;;;;;3.47;2.13;;;6.20;84.50;;;;;;5012868;28;20038;-50
2021/01/20 02:00:57;;;;;;;4.78;1.85;;;6.20;84.50;;;;;;5040489;28;20108;-50
2021/01/20 02:03:22;;;;;;;4.68;1.83;;;6.20;84.50;;;;;;5039484;28;20141;-50
2021/01/20 02:05:48;;;;;;;2.42;0.82;;;6.20;84.40;;;;;;5044289;28;20450;-50
2021/01/20 02:08:14;;;;;;;3.97;2.00;;;6.20;84.40;;;;;;5013652;28;20036;-50
2021/01/20 02:10:41;;;;;;;5.25;2.00;;;6.20;84.40;;;;;;5023624;28;20111;-50
2021/01/20 02:13:25;;;;;;;4.60;2.22;;;6.20;84.50;;;;;;5031763;28;20057;-50
2021/01/20 02:16:10;;;;;;;4.75;2.47;;;6.20;84.50;;;;;;5032852;28;20351;-50
2021/01/20 02:18:37;;;;;;;4.65;2.42;;;6.20;84.40;;;;;;5033108;28;20041;-50
2021/01/20 02:21:20;;;;;;;6.10;2.83;;;6.20;84.40;;;;;;5033117;28;20029;-50
2021/01/20 02:23:46;;;;;;;5.68;1.95;;;6.20;84.40;;;;;;5031445;28;20029;-50
2021/01/20 02:26:26;;;;;;;3.80;1.80;;;6.20;84.40;;;;;;5032307;28;20037;-50
2021/01/20 02:29:02;;;;;;;3.25;1.88;;;6.20;84.40;;;;;;5032961;28;20029;-50
2021/01/20 02:31:29;;;;;;;2.65;1.80;;;6.20;84.40;;;;;;5033111;28;20017;-50
2021/01/20 02:33:59;;;;;;;5.93;2.72;;;6.20;84.50;;;;;;5026159;28;20028;-50
2021/01/20 02:36:27;;;;;;;7.13;2.65;;;6.20;84.40;;;;;;5013364;28;20026;-50
2021/01/20 02:38:54;;;;;;;6.15;2.28;;;6.10;84.30;;;;;;5026110;28;20096;-50
2021/01/20 02:41:24;;;;;;;5.28;2.22;;;6.20;84.40;;;;;;5030397;28;20060;-50
2021/01/20 02:43:50;;;;;;;;;;;6.20;84.40;;;;;;5014717;28;20041;-50
2021/01/20 02:46:16;;;;;;;4.57;1.83;;;6.20;84.30;;;;;;5012817;28;19906;-49
2021/01/20 02:48:42;;;;;;;5.30;2.83;;;6.20;84.30;;;;;;5013347;28;20150;-50
2021/01/20 02:51:10;;;;;;;4.97;2.78;;;6.20;84.30;;;;;;5013841;28;20809;-50
2021/01/20 02:53:37;;;;;;;4.85;2.75;;;6.20;84.40;;;;;;5032300;28;20021;-50
2021/01/20 02:56:07;;;;;;;4.60;2.15;;;6.20;84.30;;;;;;5018797;28;20117;-50
2021/01/20 02:58:35;;;;;;;6.90;2.47;;;6.20;84.30;;;;;;5013031;28;20034;-50
2021/01/20 03:01:03;;;;;;;4.63;2.58;;;6.20;84.30;;;;;;5013082;28;20026;-50
2021/01/20 03:03:31;;;;;;;3.80;2.63;;;6.20;84.30;;;;;;5013007;28;20113;-50
2021/01/20 03:05:57;;;;;;;5.63;1.80;;;6.10;84.30;;;;;;5013996;28;20455;-50
2021/01/20 03:08:25;;;;;;;4.93;2.50;;;6.20;84.30;;;;;;5012881;28;20030;-49
2021/01/20 03:10:51;;;;;;;4.00;2.50;;;6.20;84.30;;;;;;5012822;28;20037;-49
2021/01/20 03:13:18;;;;;;;3.13;2.10;;;6.20;84.30;;;;;;5012864;28;20113;-50
2021/01/20 03:15:45;;;;;;;8.02;3.50;;;6.20;84.30;;;;;;5013622;28;20363;-50
2021/01/20 03:18:12;;;;;;;2.00;1.55;;;6.20;84.30;;;;;;5012505;28;20121;-50
2021/01/20 03:20:37;;;;;;;8.05;2.78;;;6.20;84.30;;;;;;5012742;28;20084;-50
2021/01/20 03:23:05;;;;;;;1.65;1.17;;;6.10;84.20;;;;;;5016362;28;20440;-50
2021/01/20 03:25:31;;;;;;;1.88;1.35;;;6.10;84.20;;;;;;5016392;28;20033;-50
2021/01/20 03:27:57;;;;;;;3.72;2.47;;;6.20;84.30;;;;;;5017122;28;20341;-50
2021/01/20 03:30:23;;;;;;;3.17;2.60;;;6.10;84.30;;;;;;5016325;28;20034;-50
2021/01/20 03:32:48;;;;;;;3.38;2.20;;;6.20;84.30;;;;;;5015803;28;20432;-50
2021/01/20 03:35:15;;;;;;;5.95;2.67;;;6.10;84.20;;;;;;5035573;28;20029;-50
2021/01/20 03:37:41;;;;;;;6.32;2.75;;;6.10;84.30;;;;;;5021443;28;20121;-50
2021/01/20 03:40:08;;;;;;;4.68;2.85;;;6.20;84.30;;;;;;5016274;28;20109;-50
2021/01/20 03:42:34;;;;;;;4.15;2.22;;;6.20;84.30;;;;;;5016007;28;20481;-50
2021/01/20 03:44:59;;;;;;;4.53;2.25;;;6.20;84.30;;;;;;5016205;28;20105;-50
2021/01/20 03:47:25;;;;;;;2.95;2.15;;;6.10;85.00;;;;;;5016439;28;20026;-49
2021/01/20 03:49:51;;;;;;;7.00;2.63;;;6.10;84.30;;;;;;5016307;28;20455;-50
2021/01/20 03:52:16;;;;;;;5.13;2.50;;;6.10;84.30;;;;;;5016055;28;20101;-50
2021/01/20 03:54:42;;;;;;;3.15;2.35;;;6.10;84.30;;;;;;5015869;28;20056;-50
2021/01/20 03:57:08;;;;;;;6.35;2.78;;;6.10;84.30;;;;;;5015565;28;20424;-50
2021/01/20 03:59:33;;;;;;;6.75;2.72;;;6.10;84.30;;;;;;5016895;28;20030;-50
2021/01/20 04:01:59;;;;;;;5.65;2.53;;;6.20;84.30;;;;;;5025632;28;20052;-50
2021/01/20 04:04:25;;;;;;;4.10;2.42;;;6.20;84.40;;;;;;5035266;28;20520;-50
2021/01/20 04:06:51;;;;;;;4.75;2.80;;;6.10;84.30;;;;;;5018841;28;20033;-50
2021/01/20 04:09:17;;;;;;;2.65;1.65;;;6.10;85.00;;;;;;5016840;28;20022;-49
2021/01/20 04:11:42;;;;;;;1.77;1.23;;;6.10;84.40;;;;;;5015699;28;20026;-50
2021/01/20 04:14:08;;;;;;;4.72;2.58;;;6.10;84.40;;;;;;5015319;28;20076;-50
2021/01/20 04:16:34;;;;;;;3.47;2.15;;;6.10;84.30;;;;;;5014931;28;20041;-49
2021/01/20 04:18:59;;;;;;;2.53;1.83;;;6.10;84.30;;;;;;5015933;28;20383;-50
2021/01/20 04:21:25;;;;;;;2.15;1.17;;;6.10;84.30;;;;;;5016028;28;20432;-50
2021/01/20 04:23:51;;;;;;;5.88;2.33;;;6.10;84.30;;;;;;5015127;28;20041;-50
2021/01/20 04:26:17;;;;;;;3.58;2.08;;;6.10;84.30;;;;;;5015205;28;20148;-50
2021/01/20 04:28:43;;;;;;;3.08;1.80;;;6.10;84.30;;;;;;5015412;28;20033;-50
2021/01/20 04:31:08;;;;;;;6.07;2.70;;;6.10;84.30;;;;;;5016128;28;20022;-50
2021/01/20 04:33:34;;;;;;;2.55;2.00;;;6.10;84.30;;;;;;5013795;28;20112;-50
2021/01/20 04:36:00;;;;;;;4.00;1.88;;;6.10;84.30;;;;;;5018187;28;20404;-50
2021/01/20 04:38:25;;;;;;;2.55;2.17;;;6.10;84.30;;;;;;5032864;28;20037;-50
2021/01/20 04:40:56;;;;;;;3.58;2.25;;;6.10;84.30;;;;;;5023768;28;20116;-50
2021/01/20 04:43:22;;;;;;;3.25;1.98;;;6.10;84.30;;;;;;5015135;28;20363;-50
2021/01/20 04:45:52;;;;;;;3.92;2.20;;;6.10;84.30;;;;;;5014747;28;20025;-50
2021/01/20 04:48:19;;;;;;;3.22;2.25;;;6.10;84.30;;;;;;5014637;28;20466;-50
2021/01/20 04:50:48;;;;;;;5.40;2.03;;;6.10;84.30;;;;;;5015081;28;20038;-50
2021/01/20 04:53:15;;;;;;;5.03;1.33;;;6.10;84.20;;;;;;5029080;28;20077;-50
2021/01/20 04:55:44;;;;;;;4.32;2.03;;;6.10;84.20;;;;;;5026329;28;20053;-50
2021/01/20 04:58:11;;;;;;;4.05;1.33;;;6.20;84.30;;;;;;5013884;28;20072;-50
2021/01/20 05:00:38;;;;;;;6.47;2.35;;;6.10;84.20;;;;;;5014628;28;20340;-50
2021/01/20 05:03:09;;;;;;;4.82;2.47;;;6.20;84.20;;;;;;5021252;28;20340;-50
2021/01/20 05:05:35;;;;;;;;;;;6.10;84.20;;;;;;5021910;28;20022;-50
2021/01/20 05:08:02;;;;;;;0.65;0.65;;;6.20;84.20;;;;;;5024691;28;19915;-50
2021/01/20 05:10:28;;;;;;;6.90;1.95;;;6.10;84.20;;;;;;5024110;28;20049;-50
2021/01/20 05:12:53;;;;;;;0.82;0.80;;;6.20;85.00;;;;;;5021317;28;20034;-50
2021/01/20 05:15:32;;;;;;;1.92;1.50;;;6.20;84.20;;;;;;5024778;28;20053;-50
2021/01/20 05:18:05;;;;;;;4.32;2.20;;;6.20;84.20;;;;;;5026658;28;20060;-50
2021/01/20 05:20:38;;;;;;;3.28;1.48;;;6.20;84.20;;;;;;5019669;28;20351;-50
2021/01/20 05:23:08;;;;;;;3.85;2.15;;;6.10;84.10;;;;;;5014567;28;20026;-50
2021/01/20 05:25:36;;;;;;;2.65;1.52;;;6.20;84.20;;;;;;5033774;28;20033;-50
2021/01/20 05:28:21;;;;;;;3.47;2.20;;;6.10;84.10;;;;;;5033934;28;20398;-50
2021/01/20 05:30:49;;;;;;;7.45;2.47;;;6.20;84.20;;;;;;5014424;28;20037;-50
2021/01/20 05:33:17;;;;;;;2.53;1.98;;;6.20;84.10;;;;;;5016431;28;20065;-50
2021/01/20 05:35:44;;;;;;;6.95;2.50;;;6.20;84.10;;;;;;5019838;28;20056;-50
2021/01/20 05:38:10;;;;;;;4.00;2.40;;;6.20;84.10;;;;;;5017009;28;20049;-50
2021/01/20 05:40:36;;;;;;;4.32;2.55;;;6.20;84.10;;;;;;5021749;28;20100;-50
2021/01/20 05:43:03;;;;;;;3.97;2.70;;;6.20;84.10;;;;;;5023541;28;20112;-50
2021/01/20 05:45:29;;;;;;;4.30;2.13;;;6.20;84.00;;;;;;5018519;28;20028;-51
2021/01/20 05:48:08;;;;;;;3.08;2.20;;;6.20;84.00;;;;;;5016282;28;20030;-50
2021/01/20 05:50:57;;;;;;;6.32;3.03;;;6.20;84.00;;;;;;5031853;28;20243;-50
2021/01/20 05:53:23;;;;;;;4.80;3.03;;;6.20;84.00;;;;;;5026835;28;20034;-50
2021/01/20 05:56:04;;;;;;;6.53;2.72;;;6.20;84.00;;;;;;5020546;28;20033;-50
2021/01/20 05:58:40;;;;;;;5.80;3.83;;;6.20;84.00;;;;;;5031793;28;20119;-50
2021/01/20 06:01:10;;;;;;;5.68;2.67;;;6.20;83.90;;;;;;5021571;28;20034;-50
2021/01/20 06:03:36;;;;;;;8.23;4.20;;;6.20;83.90;;;;;;5018056;28;20053;-50
2021/01/20 06:06:06;;;;;;;2.95;2.00;;;6.20;83.90;;;;;;5020476;28;20022;-50
2021/01/20 06:08:34;;;;;;;7.10;3.83;;;6.20;83.90;;;;;;5016660;28;20526;-50
2021/01/20 06:11:01;;;;;;;6.70;4.03;;;6.20;83.90;;;;;;5018785;28;20038;-50
2021/01/20 06:13:27;;;;;;;8.38;4.05;;;6.20;83.90;;;;;;5020729;28;20045;-50
2021/01/20 06:15:59;;;;;;;10.20;5.25;;;6.20;83.90;;;;;;5017727;28;20029;-50
2021/01/20 06:18:31;;;;;;;10.20;5.25;;;6.20;83.90;;;;;;5031985;28;20044;-50
2021/01/20 06:20:57;;;;;;;10.90;5.13;;;6.20;83.80;;;;;;5023512;28;20029;-50
2021/01/20 06:23:25;;;;;;;17.35;5.88;;;6.10;83.80;;;;;;5022949;28;20033;-50
2021/01/20 06:25:58;;;;;;;14.27;5.88;;;6.10;83.70;;;;;;5017591;28;20363;-50
2021/01/20 06:28:24;;;;;;;16.65;6.35;;;6.10;83.70;;;;;;5020908;28;20079;-50
2021/01/20 06:30:52;;;;;;;14.63;6.13;;;6.10;83.60;;;;;;5012796;28;20025;-50
2021/01/20 06:33:19;;;;;;;13.27;5.97;;;6.10;83.60;;;;;;5013444;28;20037;-50
2021/01/20 06:35:47;;;;;;;11.05;5.40;;;6.10;83.50;;;;;;5017756;28;20029;-50
2021/01/20 06:38:28;;;;;;;14.88;6.50;;;6.10;83.50;;;;;;5026100;28;20433;-50
2021/01/20 06:40:55;;;;;;;11.57;4.95;;;6.10;83.50;;;;;;5025190;28;20069;-50
2021/01/20 06:43:35;;;;;;;20.52;6.38;;;6.10;83.50;;;;;;5033177;28;20029;-50
2021/01/20 06:46:27;;;;;;;11.75;5.18;;;6.10;83.50;;;;;;5033086;28;20021;-50
2021/01/20 06:48:55;;;;;;;12.13;5.53;;;6.10;83.40;;;;;;5031010;28;20147;-50
2021/01/20 06:51:22;;;;;;;13.43;6.05;;;6.10;83.40;;;;;;5032690;28;20025;-50
2021/01/20 06:54:12;;;;;;;12.13;5.68;;;6.10;83.40;;;;;;5014397;28;20046;-50
2021/01/20 06:56:43;;;;;;;11.05;4.72;;;6.10;83.50;;;;;;5014157;28;20034;-50
2021/01/20 06:59:26;;;;;;;7.50;4.13;;;6.10;83.50;;;;;;5017777;28;20041;-50
2021/01/20 07:02:04;;;;;;;9.10;4.65;;;6.10;83.50;;;;;;5016816;28;20141;-50
2021/01/20 07:04:38;;;;;;;11.30;5.43;;;6.10;83.50;;;;;;5016861;28;20081;-50
2021/01/20 07:07:08;;;;;;;7.28;4.28;;;6.10;83.40;;;;;;5034580;28;20021;-50
2021/01/20 07:09:55;;;;;;;13.23;5.28;;;6.10;83.40;;;;;;5035430;28;20038;-50
2021/01/20 07:12:22;;;;;;;10.43;5.07;;;6.10;83.40;;;;;;5036742;28;20064;-50
2021/01/20 07:14:49;;;;;;;9.15;4.88;;;6.10;83.40;;;;;;5036560;28;20044;-50
2021/01/20 07:17:16;;;;;;;13.10;5.30;;;6.10;83.50;;;;;;5035759;28;20033;-50
2021/01/20 07:19:44;;;;;;;12.52;5.22;;;6.10;83.50;;;;;;5034646;28;20049;-50
2021/01/20 07:22:10;;;;;;;10.73;5.38;;;6.10;83.40;;;;;;5035911;28;20026;-50
2021/01/20 07:24:36;;;;;;;17.73;6.70;;;6.10;83.40;;;;;;5036454;28;20025;-50
2021/01/20 07:27:06;;;;;;;15.35;7.20;;;6.10;83.40;;;;;;5036141;28;20130;-50
2021/01/20 07:29:32;;;;;;;11.88;5.78;;;6.10;83.40;;;;;;5032502;28;20076;-50
2021/01/20 07:31:59;;;;;;;11.52;5.15;;;6.10;83.40;;;;;;5016343;28;20050;-50
2021/01/20 07:34:38;;;;;;;12.98;5.45;;;6.10;83.40;;;;;;5016129;28;20029;-50
2021/01/20 07:37:06;;;;;;;8.40;4.20;;;6.10;83.40;;;;;;5015800;28;20040;-50
2021/01/20 07:39:32;;;;;;;10.38;5.22;;;6.20;83.40;;;;;;5016232;28;20034;-50
2021/01/20 07:41:58;;;;;;;12.43;5.38;;;6.20;83.30;;;;;;5017291;28;20037;-50
2021/01/20 07:44:28;;;;;;;9.77;4.90;;;6.10;83.30;;;;;;5016241;28;20072;-50
2021/01/20 07:47:00;;;;;;;10.85;5.15;;;6.20;83.30;;;;;;5020647;28;20032;-50
2021/01/20 07:49:27;;;;;;;17.90;6.38;;;6.20;83.20;;;;;;5036100;28;20064;-50
2021/01/20 07:52:09;;;;;;;14.82;6.28;;;6.20;83.20;;;;;;5034169;28;20112;-50
2021/01/20 07:54:44;;;;;;;9.07;5.10;;;6.20;83.20;;;;;;5035631;28;20021;-50
2021/01/20 07:57:15;;;;;;;7.18;4.03;;;6.20;83.20;;;;;;5035253;28;20355;-50
2021/01/20 07:59:41;;;;;;;9.05;4.30;;;6.20;83.10;;;;;;5035456;28;20029;-50
2021/01/20 08:02:10;;;;;;;9.20;4.93;;;6.20;83.10;;;;;;5033777;28;20028;-50
2021/01/20 08:04:37;;;;;;;7.95;4.28;;;6.20;83.00;;;;;;5035467;28;20025;-50
2021/01/20 08:07:04;;;;;;;9.80;4.22;;;6.20;83.00;;;;;;5017205;28;20312;-50
2021/01/20 08:09:39;;;;;;;10.73;4.43;;;6.20;82.90;;;;;;5014680;28;20041;-50
2021/01/20 08:12:14;;;;;;;9.02;4.10;;;6.20;82.90;;;;;;5016385;28;20022;-50
2021/01/20 08:14:43;;;;;;;8.57;4.18;;;6.30;82.90;;;;;;5016837;28;20026;-50
2021/01/20 08:17:10;;;;;;;8.25;4.78;;;6.30;82.90;;;;;;5033212;28;20099;-50
2021/01/20 08:19:37;;;;;;;8.38;3.90;;;6.30;82.80;;;;;;5034955;28;20112;-50
2021/01/20 08:22:06;;;;;;;6.10;3.88;;;6.30;82.80;;;;;;5035225;28;20107;-50
2021/01/20 08:24:32;;;;;;;5.78;3.33;;;6.30;82.80;;;;;;5033249;28;20386;-50
2021/01/20 08:27:00;;;;;;;7.68;4.60;;;6.30;82.70;;;;;;5034759;28;20586;-50
2021/01/20 08:29:27;;;;;;;7.00;4.03;;;6.30;82.70;;;;;;5034873;28;20053;-50
2021/01/20 08:32:12;;;;;;;7.13;4.15;;;6.30;82.60;;;;;;5035047;28;20100;-50
2021/01/20 08:34:39;;;;;;;8.80;4.70;;;6.30;82.50;;;;;;5021698;28;20034;-50
2021/01/20 08:37:08;;;;;;;5.85;3.20;;;6.40;82.60;;;;;;5014583;28;20061;-50
2021/01/20 08:39:39;;;;;;;7.90;4.72;;;6.40;82.50;;;;;;5015315;28;20060;-50
2021/01/20 08:42:13;;;;;;;7.28;4.32;;;6.40;83.30;;;;;;5033929;28;20470;-50
2021/01/20 08:44:39;;;;;;;7.55;4.00;;;6.40;82.40;;;;;;5025483;28;20359;-50
2021/01/20 08:47:04;;;;;;;9.98;5.13;;;6.40;82.40;;;;;;5014589;28;20029;-50
2021/01/20 08:49:30;;;;;;;7.28;4.05;;;6.40;82.40;;;;;;5014741;28;20029;-50
2021/01/20 08:51:57;;;;;;;8.20;4.30;;;6.40;82.30;;;;;;5015105;28;20033;-50
2021/01/20 08:54:24;;;;;;;11.90;4.55;;;6.50;82.40;;;;;;5015725;28;20480;-50
2021/01/20 08:56:49;;;;;;;9.55;4.60;;;6.50;82.30;;;;;;5014480;28;20041;-50
2021/01/20 08:59:15;;;;;;;13.00;4.97;;;6.50;82.20;;;;;;5018583;28;20025;-50
2021/01/20 09:01:41;;;;;;;9.65;4.70;;;6.50;82.30;;;;;;5034578;28;20030;-50
2021/01/20 09:04:06;;;;;;;9.90;4.65;;;6.50;82.20;;;;;;5034300;28;20159;-50
2021/01/20 09:06:33;;;;;;;9.00;4.82;;;6.50;82.20;;;;;;5021603;28;20052;-50
2021/01/20 09:08:59;;;;;;;7.47;4.20;;;6.50;82.10;;;;;;5014375;28;20448;-50
2021/01/20 09:11:25;;;;;;;9.43;4.80;;;6.60;82.10;;;;;;5014511;28;20104;-50
2021/01/20 09:13:54;;;;;;;7.00;4.20;;;6.60;82.00;;;;;;5014433;28;20034;-50
2021/01/20 09:16:32;;;;;;;8.70;4.63;;;6.60;82.00;;;;;;5015950;28;20026;-50
2021/01/20 09:18:58;;;;;;;7.32;4.57;;;6.60;82.00;;;;;;5013665;28;20030;-50
2021/01/20 09:21:24;;;;;;;9.15;4.28;;;6.70;82.00;;;;;;5014341;28;20037;-50
2021/01/20 09:23:50;;;;;;;7.43;4.57;;;6.60;82.00;;;;;;5014241;28;20121;-50
2021/01/20 09:26:15;;;;;;;7.78;4.25;;;6.70;81.90;;;;;;5013986;28;20057;-50
2021/01/20 09:28:41;;;;;;;7.72;4.50;;;6.70;81.90;;;;;;5028044;28;20053;-50
2021/01/20 09:31:07;;;;;;;10.50;4.57;;;6.70;81.90;;;;;;5014584;28;20030;-50
2021/01/20 09:33:33;;;;;;;10.15;4.68;;;6.70;81.90;;;;;;5013959;28;20443;-50
2021/01/20 09:36:00;;;;;;;9.95;4.13;;;6.70;81.80;;;;;;5014222;28;20025;-50
2021/01/20 09:38:26;;;;;;;8.20;3.97;;;6.70;81.80;;;;;;5025012;28;20042;-50
2021/01/20 09:40:52;;;;;;;6.60;3.92;;;6.80;81.90;;;;;;5033704;28;20109;-50
2021/01/20 09:43:20;;;;;;;6.72;4.20;;;6.80;81.80;;;;;;5016253;28;20109;-50
2021/01/20 09:45:46;;;;;;;9.00;4.25;;;6.80;81.80;;;;;;5013793;28;20463;-50
2021/01/20 09:48:12;;;;;;;10.07;3.70;;;6.80;81.70;;;;;;5014589;28;20070;-50
2021/01/20 09:50:38;;;;;;;11.35;4.00;;;6.80;81.80;;;;;;5023191;28;20443;-50
2021/01/20 09:53:05;;;;;;;12.88;5.20;;;6.80;81.80;;;;;;5033681;28;20052;-50
2021/01/20 09:55:31;;;;;;;13.82;4.68;;;6.90;81.80;;;;;;5033433;28;20026;-50
2021/01/20 09:58:02;;;;;;;10.13;5.38;;;6.90;81.80;;;;;;5033403;28;20038;-50
2021/01/20 10:00:27;;;;;;;;;;;6.90;81.70;;;;;;5032111;28;20033;-50
2021/01/20 10:02:53;;;;;;;13.35;4.47;;;6.90;81.80;;;;;;5033395;28;19916;-50
2021/01/20 10:05:19;;;;;;;10.70;4.40;;;6.90;81.80;;;;;;5029872;28;20348;-50
2021/01/20 10:07:44;;;;;;;8.48;4.40;;;6.90;81.70;;;;;;5013376;28;20494;-50
2021/01/20 10:10:12;;;;;;;10.40;4.82;;;6.90;81.70;;;;;;5014938;28;20022;-50
2021/01/20 10:12:39;;;;;;;13.52;4.53;;;7.00;81.60;;;;;;5013509;28;20041;-50
2021/01/20 10:15:06;;;;;;;9.25;4.70;;;7.00;81.60;;;;;;5013274;28;20029;-50
2021/01/20 10:17:33;;;;;;;9.60;4.32;;;7.00;81.60;;;;;;5013052;28;20044;-50
2021/01/20 10:19:59;;;;;;;9.43;4.53;;;7.00;81.70;;;;;;5014496;28;20080;-50
2021/01/20 10:22:24;;;;;;;6.88;3.33;;;7.00;81.60;;;;;;5013555;28;20026;-50
2021/01/20 10:24:50;;;;;;;9.00;4.63;;;7.00;81.60;;;;;;5013262;28;20029;-50
2021/01/20 10:27:16;;;;;;;8.95;4.03;;;7.10;81.60;;;;;;5013029;28;20116;-50
2021/01/20 10:29:42;;;;;;;10.63;4.57;;;7.10;81.60;;;;;;5014044;28;20026;-50
2021/01/20 10:32:07;;;;;;;12.23;4.57;;;7.10;81.60;;;;;;5028518;28;20029;-50
2021/01/20 10:34:33;;;;;;;11.15;3.47;;;7.10;81.60;;;;;;5033347;28;20447;-50
2021/01/20 10:36:59;;;;;;;9.38;4.18;;;7.10;81.50;;;;;;5030141;28;20029;-50
2021/01/20 10:39:24;;;;;;;4.47;3.55;;;7.10;81.50;;;;;;5017133;28;20037;-50
2021/01/20 10:41:52;;;;;;;6.45;3.25;;;7.10;81.50;;;;;;5018191;28;20029;-50
2021/01/20 10:44:18;;;;;;;10.10;4.18;;;7.10;81.60;;;;;;5017412;28;20022;-50
2021/01/20 10:46:44;;;;;;;7.78;3.45;;;7.10;81.60;;;;;;5019823;28;20076;-50
2021/01/20 10:49:09;;;;;;;9.38;4.38;;;7.10;81.70;;;;;;5016504;28;20021;-50
2021/01/20 10:51:35;;;;;;;8.20;4.00;;;7.20;81.70;;;;;;5018270;28;20026;-50
2021/01/20 10:54:02;;;;;;;3.75;2.70;;;7.10;81.80;;;;;;5016944;28;20029;-50
2021/01/20 10:56:28;;;;;;;9.27;4.10;;;7.20;81.70;;;;;;5017012;28;20033;-50
2021/01/20 10:58:54;;;;;;;1.45;1.13;;;7.10;81.70;;;;;;5016715;28;20481;-50
2021/01/20 11:01:19;;;;;;;3.35;2.22;;;7.20;81.80;;;;;;5017875;28;20109;-50
2021/01/20 11:03:45;;;;;;;3.63;2.17;;;7.20;81.90;;;;;;5020553;28;20331;-50
2021/01/20 11:06:11;;;;;;;4.88;3.35;;;7.20;81.90;;;;;;5025346;28;20022;-50
2021/01/20 11:08:37;;;;;;;6.60;3.85;;;7.20;81.90;;;;;;5016551;28;20352;-50
2021/01/20 11:11:03;;;;;;;7.57;4.32;;;7.20;81.90;;;;;;5016960;28;20029;-50
2021/01/20 11:13:31;;;;;;;9.13;3.03;;;7.20;81.90;;;;;;5017644;28;20403;-50
2021/01/20 11:15:57;;;;;;;9.38;3.35;;;7.20;81.80;;;;;;5016509;28;20112;-50
2021/01/20 11:18:23;;;;;;;10.38;3.22;;;7.20;81.90;;;;;;5016406;28;20125;-50
2021/01/20 11:20:49;;;;;;;5.90;3.03;;;7.20;81.70;;;;;;5016899;28;20026;-50
2021/01/20 11:23:18;;;;;;;13.20;4.43;;;7.20;81.70;;;;;;5017675;28;20095;-50
2021/01/20 11:25:51;;;;;;;6.72;3.13;;;7.20;81.70;;;;;;5016716;28;20025;-50
2021/01/20 11:28:17;;;;;;;5.85;3.20;;;7.30;81.70;;;;;;5016158;28;20109;-50
2021/01/20 11:30:43;;;;;;;6.18;2.50;;;7.30;81.70;;;;;;5016350;28;20121;-50
2021/01/20 11:33:10;;;;;;;5.25;2.50;;;7.30;81.80;;;;;;5017545;28;20084;-50
2021/01/20 11:35:37;;;;;;;4.75;2.55;;;7.30;81.90;;;;;;5016338;28;20537;-50
2021/01/20 11:38:03;;;;;;;13.30;2.67;;;7.30;81.90;;;;;;5015761;28;20050;-50
2021/01/20 11:40:31;;;;;;;3.35;2.00;;;7.30;82.10;;;;;;5021458;28;20027;-50
2021/01/20 11:42:57;;;;;;;0.65;0.63;;;7.30;82.90;;;;;;5035357;28;20037;-50
2021/01/20 11:45:28;;;;;;;8.43;1.95;;;7.30;82.10;;;;;;5017728;28;20080;-50
2021/01/20 11:47:54;;;;;;;3.90;2.05;;;7.30;82.20;;;;;;5015844;28;20105;-50
2021/01/20 11:50:20;;;;;;;7.15;3.00;;;7.30;82.10;;;;;;5016069;28;20101;-50
2021/01/20 11:52:47;;;;;;;4.32;2.67;;;7.40;81.90;;;;;;5016026;28;20022;-50
2021/01/20 11:55:13;;;;;;;3.50;2.45;;;7.40;81.60;;;;;;5016945;28;20459;-50
2021/01/20 11:57:40;;;;;;;1.30;1.17;;;7.40;81.80;;;;;;5015422;28;20042;-50
2021/01/20 12:00:06;;;;;;;3.92;2.20;;;7.40;81.80;;;;;;5016014;28;20018;-50
2021/01/20 12:02:32;;;;;;;0.25;0.25;;;7.40;81.80;;;;;;5033870;28;20455;-50
2021/01/20 12:04:58;;;;;;;1.60;1.35;;;7.40;82.00;;;;;;5032974;28;20036;-50
2021/01/20 12:07:23;;;;;;;4.50;2.67;;;7.40;82.00;;;;;;5015534;28;20033;-50
2021/01/20 12:09:50;;;;;;;8.38;3.30;;;7.40;81.80;;;;;;5015658;28;20033;-50
2021/01/20 12:12:16;;;;;;;7.40;3.20;;;7.40;81.80;;;;;;5015594;28;20074;-50
2021/01/20 12:14:42;;;;;;;3.38;1.08;;;7.40;81.80;;;;;;5015880;28;20356;-50
2021/01/20 12:17:07;;;;;;;2.65;1.65;;;7.50;81.70;;;;;;5016335;28;20475;-50
2021/01/20 12:19:33;;;;;;;3.95;1.90;;;7.50;81.90;;;;;;5015304;28;20123;-50
2021/01/20 12:21:59;;;;;;;4.15;2.50;;;7.50;81.80;;;;;;5015372;28;20026;-50
2021/01/20 12:24:24;;;;;;;2.83;1.55;;;7.50;81.90;;;;;;5015487;28;20162;-50
2021/01/20 12:26:50;;;;;;;6.22;3.10;;;7.50;81.90;;;;;;5015694;28;20022;-50
2021/01/20 12:29:16;;;;;;;5.45;3.03;;;7.50;81.90;;;;;;5026484;28;20087;-50
2021/01/20 12:31:41;;;;;;;4.55;2.80;;;7.50;81.90;;;;;;5015203;28;20259;-50
2021/01/20 12:34:07;;;;;;;4.82;2.33;;;7.50;81.90;;;;;;5021917;28;20036;-50
2021/01/20 12:36:33;;;;;;;3.55;2.45;;;7.50;81.80;;;;;;5017410;28;20535;-50
2021/01/20 12:38:58;;;;;;;7.07;2.53;;;7.50;81.90;;;;;;5027427;28;20123;-50
2021/01/20 12:41:24;;;;;;;4.43;2.47;;;7.50;81.90;;;;;;5029127;28;20029;-50
2021/01/20 12:43:50;;;;;;;4.13;2.45;;;7.50;81.80;;;;;;5034537;28;20437;-50
2021/01/20 12:46:15;;;;;;;5.15;2.78;;;7.50;81.80;;;;;;5034656;28;20056;-50
2021/01/20 12:48:41;;;;;;;4.57;2.78;;;7.50;81.80;;;;;;5032900;28;20382;-50
2021/01/20 12:51:07;;;;;;;5.35;2.60;;;7.50;81.80;;;;;;5029072;28;20029;-50
2021/01/20 12:53:32;;;;;;;6.50;2.50;;;7.50;81.70;;;;;;5022261;28;20033;-50
2021/01/20 12:55:58;;;;;;;5.85;2.97;;;7.50;81.70;;;;;;5018436;28;20034;-50
2021/01/20 12:58:23;;;;;;;8.52;3.25;;;7.60;81.60;;;;;;5015470;28;20362;-50